BONES22 KNTU-KNTU
Flight info
| Callsign | BONES22 |
|---|---|
| Flight time | 1h 1m |
| Altitude | 10000 |
| Route | VFR OPR |
| Aircraft | F18S/M-VD/C |
Departure
| Time | 2026-04-19 15:14 |
|---|---|
| Airport | Oceana Naval Air Station (KNTU) |
Arrival
| Time | 2026-04-19 16:16 |
|---|---|
| Airport | Oceana Naval Air Station (KNTU) |
| Time | Latitude | Longitude | Altitude | Speed | Heading |
|---|---|---|---|---|---|
| 2026-04-19 14:41 | 36.81335 | -76.03383 | 30 ft | 0 kts | 133° |
| 2026-04-19 15:09 | 36.81343 | -76.03371 | 30 ft | 5 kts | 350° |
| 2026-04-19 15:10 | 36.81397 | -76.03427 | 30 ft | 8 kts | 314° |
| 2026-04-19 15:10 | 36.81441 | -76.03487 | 30 ft | 5 kts | 312° |
| 2026-04-19 15:10 | 36.81444 | -76.03492 | 30 ft | 0 kts | 312° |
| 2026-04-19 15:10 | 36.81453 | -76.03504 | 30 ft | 10 kts | 312° |
| 2026-04-19 15:11 | 36.81494 | -76.03610 | 30 ft | 11 kts | 307° |
| 2026-04-19 15:11 | 36.81551 | -76.03629 | 30 ft | 14 kts | 25° |
| 2026-04-19 15:11 | 36.81661 | -76.03511 | 30 ft | 28 kts | 41° |
| 2026-04-19 15:11 | 36.81840 | -76.03315 | 30 ft | 40 kts | 41° |
| 2026-04-19 15:12 | 36.82032 | -76.03100 | 30 ft | 33 kts | 43° |
| 2026-04-19 15:12 | 36.82206 | -76.02898 | 30 ft | 40 kts | 43° |
| 2026-04-19 15:12 | 36.82439 | -76.02639 | 30 ft | 47 kts | 41° |
| 2026-04-19 15:12 | 36.82649 | -76.02408 | 30 ft | 35 kts | 43° |
| 2026-04-19 15:13 | 36.82802 | -76.02234 | 30 ft | 26 kts | 40° |
| 2026-04-19 15:13 | 36.82909 | -76.02218 | 30 ft | 5 kts | 310° |
| 2026-04-19 15:13 | 36.82915 | -76.02227 | 30 ft | 7 kts | 310° |
| 2026-04-19 15:13 | 36.82936 | -76.02304 | 30 ft | 7 kts | 239° |
| 2026-04-19 15:14 | 36.82649 | -76.02627 | 30 ft | 128 kts | 223° |
| 2026-04-19 15:14 | 36.81804 | -76.03605 | 403 ft | 171 kts | 223° |
| 2026-04-19 15:14 | 36.80651 | -76.04198 | 794 ft | 216 kts | 168° |
| 2026-04-19 15:14 | 36.78824 | -76.03370 | 1305 ft | 343 kts | 159° |
| 2026-04-19 15:15 | 36.76474 | -76.02271 | 2124 ft | 376 kts | 161° |
| 2026-04-19 15:15 | 36.73829 | -76.01613 | 2998 ft | 401 kts | 174° |
| 2026-04-19 15:15 | 36.70985 | -76.01267 | 3941 ft | 420 kts | 174° |
| 2026-04-19 15:15 | 36.68019 | -76.00907 | 4907 ft | 434 kts | 175° |
| 2026-04-19 15:16 | 36.64972 | -76.00539 | 5895 ft | 445 kts | 176° |
| 2026-04-19 15:16 | 36.61868 | -76.00165 | 6914 ft | 451 kts | 177° |
| 2026-04-19 15:16 | 36.58769 | -75.99788 | 8314 ft | 445 kts | 177° |
| 2026-04-19 15:16 | 36.55706 | -75.99414 | 9745 ft | 439 kts | 177° |
| 2026-04-19 15:17 | 36.52692 | -75.99046 | 10842 ft | 440 kts | 177° |
| 2026-04-19 15:17 | 36.49648 | -75.98678 | 10526 ft | 436 kts | 177° |
| 2026-04-19 15:17 | 36.46612 | -75.98311 | 10638 ft | 440 kts | 177° |
| 2026-04-19 15:17 | 36.43572 | -75.97943 | 10630 ft | 437 kts | 177° |
| 2026-04-19 15:18 | 36.40565 | -75.97427 | 10584 ft | 433 kts | 178° |
| 2026-04-19 15:18 | 36.37616 | -75.97598 | 10657 ft | 419 kts | 191° |
| 2026-04-19 15:18 | 36.34745 | -75.98117 | 10603 ft | 415 kts | 191° |
| 2026-04-19 15:18 | 36.31901 | -75.98640 | 10617 ft | 411 kts | 191° |
| 2026-04-19 15:19 | 36.29124 | -75.99150 | 10626 ft | 407 kts | 191° |
| 2026-04-19 15:19 | 36.26286 | -75.99593 | 10614 ft | 407 kts | 183° |
| 2026-04-19 15:19 | 36.23471 | -75.99239 | 10630 ft | 407 kts | 174° |
| 2026-04-19 15:19 | 36.20684 | -75.98702 | 10621 ft | 405 kts | 174° |
| 2026-04-19 15:20 | 36.17901 | -75.98164 | 10613 ft | 404 kts | 174° |
| 2026-04-19 15:20 | 36.15166 | -75.97636 | 10623 ft | 402 kts | 174° |
| 2026-04-19 15:20 | 36.12408 | -75.97103 | 10620 ft | 401 kts | 174° |
| 2026-04-19 15:20 | 36.09618 | -75.96565 | 10619 ft | 400 kts | 174° |
| 2026-04-19 15:21 | 36.06901 | -75.96041 | 10620 ft | 399 kts | 174° |
| 2026-04-19 15:21 | 36.04156 | -75.95498 | 10619 ft | 400 kts | 174° |
| 2026-04-19 15:21 | 36.01413 | -75.94945 | 10620 ft | 400 kts | 174° |
| 2026-04-19 15:21 | 35.98667 | -75.94394 | 10620 ft | 400 kts | 174° |
| 2026-04-19 15:22 | 35.95912 | -75.93843 | 10620 ft | 401 kts | 174° |
| 2026-04-19 15:22 | 35.93162 | -75.93296 | 10620 ft | 401 kts | 174° |
| 2026-04-19 15:22 | 35.90329 | -75.92736 | 10620 ft | 401 kts | 174° |
| 2026-04-19 15:22 | 35.87576 | -75.92196 | 10620 ft | 401 kts | 174° |
| 2026-04-19 15:23 | 35.84814 | -75.91658 | 10620 ft | 401 kts | 174° |
| 2026-04-19 15:23 | 35.82055 | -75.91125 | 10620 ft | 401 kts | 174° |
| 2026-04-19 15:23 | 35.79294 | -75.90598 | 10620 ft | 401 kts | 174° |
| 2026-04-19 15:23 | 35.76538 | -75.90078 | 10620 ft | 401 kts | 174° |
| 2026-04-19 15:24 | 35.73769 | -75.89582 | 10572 ft | 404 kts | 175° |
| 2026-04-19 15:24 | 35.70903 | -75.89014 | 7291 ft | 453 kts | 168° |
| 2026-04-19 15:24 | 35.67603 | -75.87585 | 4011 ft | 532 kts | 161° |
| 2026-04-19 15:24 | 35.65715 | -75.88942 | 1746 ft | 350 kts | 329° |
| 2026-04-19 15:25 | 35.67806 | -75.89303 | 1082 ft | 290 kts | 358° |
| 2026-04-19 15:25 | 35.69700 | -75.89352 | 927 ft | 255 kts | 358° |
| 2026-04-19 15:25 | 35.71126 | -75.88949 | 1368 ft | 177 kts | 60° |
| 2026-04-19 15:25 | 35.71291 | -75.87779 | 588 ft | 131 kts | 117° |
| 2026-04-19 15:26 | 35.70698 | -75.86443 | 329 ft | 224 kts | 127° |
| 2026-04-19 15:26 | 35.69117 | -75.85279 | 1623 ft | 307 kts | 192° |
| 2026-04-19 15:26 | 35.68395 | -75.87467 | 1186 ft | 393 kts | 299° |
| 2026-04-19 15:26 | 35.70375 | -75.90659 | 903 ft | 523 kts | 311° |
| 2026-04-19 15:27 | 35.72927 | -75.94189 | 2335 ft | 573 kts | 312° |
| 2026-04-19 15:27 | 35.75686 | -75.97817 | 3930 ft | 583 kts | 314° |
| 2026-04-19 15:27 | 35.75534 | -76.01363 | 6692 ft | 540 kts | 185° |
| 2026-04-19 15:27 | 35.73622 | -75.97848 | 4459 ft | 610 kts | 92° |
| 2026-04-19 15:28 | 35.73644 | -75.92484 | 2677 ft | 636 kts | 87° |
| 2026-04-19 15:28 | 35.73896 | -75.87034 | 1203 ft | 638 kts | 85° |
| 2026-04-19 15:28 | 35.74287 | -75.81657 | 1218 ft | 627 kts | 84° |
| 2026-04-19 15:28 | 35.74773 | -75.76333 | 1200 ft | 624 kts | 83° |
| 2026-04-19 15:29 | 35.75367 | -75.71054 | 1214 ft | 623 kts | 81° |
| 2026-04-19 15:29 | 35.76082 | -75.65798 | 1256 ft | 622 kts | 79° |
| 2026-04-19 15:29 | 35.78351 | -75.62899 | 4287 ft | 544 kts | 328° |
| 2026-04-19 15:29 | 35.79429 | -75.67323 | 3947 ft | 590 kts | 266° |
| 2026-04-19 15:30 | 35.78440 | -75.72352 | 3297 ft | 618 kts | 252° |
| 2026-04-19 15:30 | 35.78317 | -75.72819 | 3292 ft | 618 kts | 252° |
| 2026-04-19 15:31 | 35.76988 | -75.77717 | 3352 ft | 594 kts | 251° |
| 2026-04-19 15:31 | 35.75715 | -75.82299 | 3170 ft | 545 kts | 251° |
| 2026-04-19 15:31 | 35.73949 | -75.86443 | 1658 ft | 545 kts | 238° |
| 2026-04-19 15:32 | 35.72627 | -75.89109 | 1417 ft | 536 kts | 239° |
| 2026-04-19 15:32 | 35.69790 | -75.93406 | 3236 ft | 433 kts | 173° |
| 2026-04-19 15:32 | 35.68839 | -75.90530 | 1405 ft | 452 kts | 79° |
| 2026-04-19 15:32 | 35.69524 | -75.86536 | 1009 ft | 473 kts | 64° |
| 2026-04-19 15:33 | 35.72253 | -75.85063 | 1649 ft | 467 kts | 359° |
| 2026-04-19 15:33 | 35.75582 | -75.84996 | 1390 ft | 476 kts | 20° |
| 2026-04-19 15:33 | 35.77050 | -75.86093 | 1070 ft | 338 kts | 206° |
| 2026-04-19 15:33 | 35.74580 | -75.86116 | 393 ft | 390 kts | 175° |
| 2026-04-19 15:34 | 35.71843 | -75.86246 | 1185 ft | 404 kts | 185° |
| 2026-04-19 15:34 | 35.69025 | -75.86607 | 1918 ft | 418 kts | 187° |
| 2026-04-19 15:34 | 35.66044 | -75.86966 | 2001 ft | 437 kts | 162° |
| 2026-04-19 15:34 | 35.65657 | -75.84387 | 2128 ft | 388 kts | 3° |
| 2026-04-19 15:35 | 35.67607 | -75.86324 | 2455 ft | 383 kts | 311° |
| 2026-04-19 15:35 | 35.68761 | -75.88066 | 3679 ft | 410 kts | 305° |
| 2026-04-19 15:35 | 35.70018 | -75.91461 | 4691 ft | 474 kts | 282° |
| 2026-04-19 15:35 | 35.70865 | -75.95740 | 4080 ft | 522 kts | 256° |
| 2026-04-19 15:36 | 35.69287 | -75.94981 | 1974 ft | 367 kts | 96° |
| 2026-04-19 15:36 | 35.69177 | -75.91711 | 2000 ft | 387 kts | 91° |
| 2026-04-19 15:36 | 35.69111 | -75.88414 | 1978 ft | 386 kts | 92° |
| 2026-04-19 15:36 | 35.69018 | -75.85114 | 1990 ft | 386 kts | 92° |
| 2026-04-19 15:37 | 35.68924 | -75.81817 | 1993 ft | 386 kts | 92° |
| 2026-04-19 15:37 | 35.68830 | -75.78513 | 1988 ft | 386 kts | 92° |
| 2026-04-19 15:37 | 35.69230 | -75.75252 | 2323 ft | 407 kts | 60° |
| 2026-04-19 15:37 | 35.71516 | -75.73057 | 3100 ft | 452 kts | 17° |
| 2026-04-19 15:38 | 35.74839 | -75.72398 | 3275 ft | 520 kts | 0° |
| 2026-04-19 15:38 | 35.78562 | -75.73078 | 3414 ft | 557 kts | 349° |
| 2026-04-19 15:38 | 35.82392 | -75.74034 | 3815 ft | 565 kts | 348° |
| 2026-04-19 15:38 | 35.85414 | -75.76097 | 5188 ft | 518 kts | 260° |
| 2026-04-19 15:39 | 35.82520 | -75.78657 | 2315 ft | 568 kts | 201° |
| 2026-04-19 15:39 | 35.78911 | -75.80854 | 1965 ft | 567 kts | 214° |
| 2026-04-19 15:39 | 35.75685 | -75.83618 | 3831 ft | 566 kts | 215° |
| 2026-04-19 15:39 | 35.72430 | -75.86392 | 4809 ft | 569 kts | 215° |
| 2026-04-19 15:40 | 35.69147 | -75.89147 | 5428 ft | 572 kts | 215° |
| 2026-04-19 15:40 | 35.65854 | -75.91874 | 6185 ft | 569 kts | 215° |
| 2026-04-19 15:40 | 35.62554 | -75.94229 | 7118 ft | 518 kts | 180° |
| 2026-04-19 15:40 | 35.61294 | -75.91377 | 6805 ft | 455 kts | 39° |
| 2026-04-19 15:41 | 35.64234 | -75.90170 | 5706 ft | 449 kts | 13° |
| 2026-04-19 15:41 | 35.67175 | -75.89150 | 5911 ft | 430 kts | 14° |
| 2026-04-19 15:41 | 35.69991 | -75.88144 | 6147 ft | 415 kts | 14° |
| 2026-04-19 15:41 | 35.72716 | -75.87157 | 6396 ft | 403 kts | 11° |
| 2026-04-19 15:42 | 35.75253 | -75.87881 | 5409 ft | 379 kts | 315° |
| 2026-04-19 15:42 | 35.76845 | -75.90487 | 4604 ft | 383 kts | 306° |
| 2026-04-19 15:42 | 35.78398 | -75.93165 | 4638 ft | 384 kts | 306° |
| 2026-04-19 15:42 | 35.79949 | -75.95836 | 4651 ft | 384 kts | 306° |
| 2026-04-19 15:43 | 35.81507 | -75.98521 | 4656 ft | 384 kts | 306° |
| 2026-04-19 15:43 | 35.83059 | -76.01194 | 4647 ft | 384 kts | 306° |
| 2026-04-19 15:43 | 35.84611 | -76.03869 | 4650 ft | 384 kts | 306° |
| 2026-04-19 15:44 | 35.87715 | -76.09219 | 4649 ft | 384 kts | 306° |
| 2026-04-19 15:44 | 35.89267 | -76.11895 | 4650 ft | 384 kts | 306° |
| 2026-04-19 15:44 | 35.90823 | -76.14578 | 4650 ft | 384 kts | 306° |
| 2026-04-19 15:44 | 35.92374 | -76.17254 | 4650 ft | 384 kts | 306° |
| 2026-04-19 15:45 | 35.93927 | -76.19933 | 4650 ft | 384 kts | 306° |
| 2026-04-19 15:45 | 35.95460 | -76.22579 | 4650 ft | 384 kts | 306° |
| 2026-04-19 15:45 | 35.97013 | -76.25259 | 4650 ft | 384 kts | 306° |
| 2026-04-19 15:45 | 35.98583 | -76.27970 | 4650 ft | 384 kts | 306° |
| 2026-04-19 15:46 | 36.00117 | -76.30617 | 4650 ft | 384 kts | 306° |
| 2026-04-19 15:46 | 36.01671 | -76.33302 | 4650 ft | 384 kts | 306° |
| 2026-04-19 15:46 | 36.03223 | -76.35982 | 4650 ft | 384 kts | 306° |
| 2026-04-19 15:46 | 36.04777 | -76.38666 | 4650 ft | 384 kts | 306° |
| 2026-04-19 15:47 | 36.06330 | -76.41350 | 4650 ft | 384 kts | 306° |
| 2026-04-19 15:47 | 36.07881 | -76.44035 | 4649 ft | 384 kts | 306° |
| 2026-04-19 15:47 | 36.09434 | -76.46719 | 4650 ft | 384 kts | 306° |
| 2026-04-19 15:47 | 36.10987 | -76.49405 | 4650 ft | 384 kts | 306° |
| 2026-04-19 15:48 | 36.12541 | -76.52092 | 4650 ft | 384 kts | 306° |
| 2026-04-19 15:48 | 36.14092 | -76.54769 | 4818 ft | 377 kts | 307° |
| 2026-04-19 15:48 | 36.15754 | -76.57222 | 6671 ft | 382 kts | 316° |
| 2026-04-19 15:48 | 36.17917 | -76.59361 | 7188 ft | 429 kts | 319° |
| 2026-04-19 15:49 | 36.20603 | -76.61976 | 7773 ft | 545 kts | 321° |
| 2026-04-19 15:49 | 36.23883 | -76.64853 | 8560 ft | 603 kts | 324° |
| 2026-04-19 15:49 | 36.27516 | -76.67688 | 9380 ft | 625 kts | 328° |
| 2026-04-19 15:49 | 36.31343 | -76.70337 | 10174 ft | 635 kts | 330° |
| 2026-04-19 15:50 | 36.35321 | -76.72779 | 11021 ft | 636 kts | 326° |
| 2026-04-19 15:50 | 36.39145 | -76.75530 | 11886 ft | 640 kts | 329° |
| 2026-04-19 15:50 | 36.43184 | -76.75549 | 11996 ft | 604 kts | 44° |
| 2026-04-19 15:50 | 36.43546 | -76.70900 | 7568 ft | 584 kts | 110° |
| 2026-04-19 15:51 | 36.41984 | -76.66520 | 5954 ft | 518 kts | 115° |
| 2026-04-19 15:51 | 36.40428 | -76.62617 | 5110 ft | 512 kts | 117° |
| 2026-04-19 15:51 | 36.38744 | -76.58600 | 4391 ft | 535 kts | 117° |
| 2026-04-19 15:51 | 36.36888 | -76.54544 | 3641 ft | 542 kts | 120° |
| 2026-04-19 15:52 | 36.34931 | -76.50541 | 2918 ft | 543 kts | 122° |
| 2026-04-19 15:52 | 36.32853 | -76.46640 | 2254 ft | 543 kts | 125° |
| 2026-04-19 15:52 | 36.30659 | -76.43034 | 1749 ft | 484 kts | 129° |
| 2026-04-19 15:52 | 36.28614 | -76.40147 | 1348 ft | 411 kts | 134° |
| 2026-04-19 15:53 | 36.26653 | -76.37922 | 1015 ft | 356 kts | 141° |
| 2026-04-19 15:53 | 36.24760 | -76.36261 | 703 ft | 312 kts | 147° |
| 2026-04-19 15:53 | 36.23027 | -76.34950 | 544 ft | 274 kts | 150° |
| 2026-04-19 15:53 | 36.21542 | -76.33771 | 577 ft | 233 kts | 146° |
| 2026-04-19 15:54 | 36.20241 | -76.32707 | 583 ft | 225 kts | 144° |
| 2026-04-19 15:54 | 36.18975 | -76.31498 | 671 ft | 235 kts | 141° |
| 2026-04-19 15:54 | 36.18617 | -76.29793 | 671 ft | 261 kts | 65° |
| 2026-04-19 15:54 | 36.19775 | -76.27434 | 559 ft | 366 kts | 56° |
| 2026-04-19 15:55 | 36.21159 | -76.24835 | 646 ft | 351 kts | 56° |
| 2026-04-19 15:55 | 36.22640 | -76.22393 | 696 ft | 354 kts | 49° |
| 2026-04-19 15:55 | 36.24404 | -76.20254 | 552 ft | 358 kts | 38° |
| 2026-04-19 15:55 | 36.26493 | -76.18724 | 326 ft | 352 kts | 22° |
| 2026-04-19 15:56 | 36.28864 | -76.17966 | 329 ft | 350 kts | 5° |
| 2026-04-19 15:56 | 36.31312 | -76.18074 | 605 ft | 352 kts | 350° |
| 2026-04-19 15:56 | 36.33760 | -76.18162 | 876 ft | 354 kts | 9° |
| 2026-04-19 15:56 | 36.36170 | -76.17464 | 1189 ft | 355 kts | 14° |
| 2026-04-19 15:57 | 36.38571 | -76.16723 | 1493 ft | 357 kts | 14° |
| 2026-04-19 15:57 | 36.40993 | -76.15975 | 1793 ft | 358 kts | 14° |
| 2026-04-19 15:57 | 36.43412 | -76.15227 | 2092 ft | 359 kts | 14° |
| 2026-04-19 15:57 | 36.45847 | -76.14473 | 2392 ft | 360 kts | 14° |
| 2026-04-19 15:58 | 36.48290 | -76.13714 | 2694 ft | 363 kts | 14° |
| 2026-04-19 15:58 | 36.50742 | -76.12952 | 2997 ft | 363 kts | 14° |
| 2026-04-19 15:58 | 36.53203 | -76.12185 | 3301 ft | 366 kts | 14° |
| 2026-04-19 15:58 | 36.55666 | -76.11417 | 3606 ft | 365 kts | 14° |
| 2026-04-19 15:59 | 36.58132 | -76.10645 | 3913 ft | 365 kts | 14° |
| 2026-04-19 15:59 | 36.60597 | -76.09872 | 4221 ft | 366 kts | 13° |
| 2026-04-19 15:59 | 36.63065 | -76.09097 | 4530 ft | 367 kts | 13° |
| 2026-04-19 15:59 | 36.65546 | -76.08314 | 4603 ft | 367 kts | 13° |
| 2026-04-19 16:00 | 36.68023 | -76.07531 | 4603 ft | 367 kts | 13° |
| 2026-04-19 16:00 | 36.70498 | -76.06746 | 4618 ft | 367 kts | 13° |
| 2026-04-19 16:00 | 36.72969 | -76.05959 | 4609 ft | 367 kts | 13° |
| 2026-04-19 16:00 | 36.75447 | -76.05166 | 4608 ft | 367 kts | 13° |
| 2026-04-19 16:01 | 36.77920 | -76.04371 | 4611 ft | 367 kts | 13° |
| 2026-04-19 16:01 | 36.80299 | -76.03086 | 4084 ft | 382 kts | 37° |
| 2026-04-19 16:01 | 36.82143 | -76.00697 | 3299 ft | 368 kts | 53° |
| 2026-04-19 16:01 | 36.83409 | -75.98173 | 2941 ft | 320 kts | 60° |
| 2026-04-19 16:02 | 36.84937 | -75.96895 | 2868 ft | 259 kts | 342° |
| 2026-04-19 16:02 | 36.85663 | -75.98578 | 1669 ft | 240 kts | 257° |
| 2026-04-19 16:02 | 36.84790 | -76.00258 | 931 ft | 220 kts | 224° |
| 2026-04-19 16:02 | 36.83852 | -76.01331 | 714 ft | 157 kts | 217° |
| 2026-04-19 16:03 | 36.83093 | -76.02133 | 176 ft | 130 kts | 222° |
| 2026-04-19 16:03 | 36.82472 | -76.02833 | 31 ft | 101 kts | 223° |
| 2026-04-19 16:03 | 36.82034 | -76.03336 | 30 ft | 86 kts | 222° |
| 2026-04-19 16:03 | 36.81146 | -76.04342 | 273 ft | 213 kts | 223° |
| 2026-04-19 16:04 | 36.80079 | -76.05382 | 602 ft | 178 kts | 196° |
| 2026-04-19 16:04 | 36.79123 | -76.04769 | 675 ft | 192 kts | 104° |
| 2026-04-19 16:04 | 36.79687 | -76.02920 | 713 ft | 296 kts | 52° |
| 2026-04-19 16:04 | 36.81281 | -76.00561 | 1004 ft | 401 kts | 49° |
| 2026-04-19 16:05 | 36.83281 | -75.97918 | 1599 ft | 390 kts | 28° |
| 2026-04-19 16:05 | 36.85093 | -75.98330 | 1778 ft | 251 kts | 302° |
| 2026-04-19 16:05 | 36.84923 | -76.00119 | 1213 ft | 204 kts | 226° |
| 2026-04-19 16:05 | 36.83948 | -76.01174 | 597 ft | 168 kts | 221° |
| 2026-04-19 16:06 | 36.83164 | -76.02048 | 167 ft | 139 kts | 222° |
| 2026-04-19 16:06 | 36.82536 | -76.02758 | 30 ft | 100 kts | 222° |
| 2026-04-19 16:06 | 36.82086 | -76.03267 | 30 ft | 107 kts | 222° |
| 2026-04-19 16:06 | 36.81062 | -76.04409 | 136 ft | 235 kts | 223° |
| 2026-04-19 16:07 | 36.79802 | -76.05417 | 512 ft | 217 kts | 187° |
| 2026-04-19 16:07 | 36.78759 | -76.04485 | 657 ft | 196 kts | 96° |
| 2026-04-19 16:07 | 36.79247 | -76.03191 | 586 ft | 181 kts | 47° |
| 2026-04-19 16:07 | 36.80334 | -76.01806 | 647 ft | 267 kts | 44° |
| 2026-04-19 16:08 | 36.81635 | -76.00230 | 648 ft | 256 kts | 43° |
| 2026-04-19 16:08 | 36.82889 | -75.98789 | 581 ft | 239 kts | 43° |
| 2026-04-19 16:08 | 36.84176 | -75.98483 | 873 ft | 172 kts | 323° |
| 2026-04-19 16:08 | 36.84730 | -75.99683 | 775 ft | 170 kts | 268° |
| 2026-04-19 16:09 | 36.84115 | -76.00988 | 532 ft | 190 kts | 221° |
| 2026-04-19 16:09 | 36.83183 | -76.02040 | 171 ft | 156 kts | 222° |
| 2026-04-19 16:09 | 36.82541 | -76.02763 | 30 ft | 95 kts | 223° |
| 2026-04-19 16:09 | 36.81745 | -76.03669 | 178 ft | 214 kts | 222° |
| 2026-04-19 16:10 | 36.80625 | -76.04915 | 470 ft | 194 kts | 220° |
| 2026-04-19 16:10 | 36.79485 | -76.05184 | 702 ft | 175 kts | 146° |
| 2026-04-19 16:10 | 36.79077 | -76.03874 | 717 ft | 173 kts | 70° |
| 2026-04-19 16:10 | 36.79836 | -76.02674 | 683 ft | 181 kts | 44° |
| 2026-04-19 16:11 | 36.80766 | -76.01589 | 752 ft | 183 kts | 42° |
| 2026-04-19 16:11 | 36.81714 | -76.00523 | 834 ft | 185 kts | 43° |
| 2026-04-19 16:11 | 36.82650 | -75.99395 | 864 ft | 188 kts | 44° |
| 2026-04-19 16:11 | 36.83737 | -75.98558 | 976 ft | 184 kts | 12° |
| 2026-04-19 16:12 | 36.84782 | -75.99135 | 1032 ft | 174 kts | 292° |
| 2026-04-19 16:12 | 36.84504 | -76.00564 | 783 ft | 189 kts | 227° |
| 2026-04-19 16:12 | 36.83428 | -76.01755 | 222 ft | 228 kts | 221° |
| 2026-04-19 16:12 | 36.82278 | -76.03053 | 85 ft | 195 kts | 222° |
| 2026-04-19 16:13 | 36.81471 | -76.03970 | 30 ft | 125 kts | 223° |
| 2026-04-19 16:13 | 36.80627 | -76.04924 | 103 ft | 211 kts | 221° |
| 2026-04-19 16:13 | 36.79359 | -76.05050 | 545 ft | 193 kts | 133° |
| 2026-04-19 16:13 | 36.79380 | -76.03524 | 580 ft | 198 kts | 59° |
| 2026-04-19 16:14 | 36.80300 | -76.02019 | 532 ft | 249 kts | 50° |
| 2026-04-19 16:14 | 36.81398 | -76.00381 | 489 ft | 235 kts | 49° |
| 2026-04-19 16:14 | 36.82401 | -75.99000 | 670 ft | 185 kts | 46° |
| 2026-04-19 16:14 | 36.83359 | -75.98553 | 676 ft | 140 kts | 338° |
| 2026-04-19 16:15 | 36.84151 | -75.99398 | 680 ft | 164 kts | 292° |
| 2026-04-19 16:15 | 36.84065 | -76.00873 | 616 ft | 188 kts | 244° |
| 2026-04-19 16:15 | 36.83126 | -76.02126 | 115 ft | 207 kts | 221° |
| 2026-04-19 16:15 | 36.82246 | -76.03106 | 30 ft | 128 kts | 222° |
| 2026-04-19 16:16 | 36.81820 | -76.03550 | 30 ft | 38 kts | 211° |
| 2026-04-19 16:16 | 36.81659 | -76.03719 | 30 ft | 27 kts | 220° |
| 2026-04-19 16:16 | 36.81472 | -76.03930 | 30 ft | 40 kts | 223° |
| 2026-04-19 16:16 | 36.81338 | -76.03972 | 30 ft | 19 kts | 138° |
| 2026-04-19 16:17 | 36.81305 | -76.03831 | 30 ft | 17 kts | 128° |
| 2026-04-19 16:17 | 36.81275 | -76.03689 | 30 ft | 11 kts | 56° |
| 2026-04-19 16:17 | 36.81278 | -76.03684 | 30 ft | 0 kts | 50° |